Time;durP1;ratioP1;P1;durP2;ratioP2;P2;SDS_P1;SDS_P2;PMS_P1;PMS_P2;Temp;Humidity;BMP_temperature;BMP_pressure;BME280_temperature;BME280_humidity;BME280_pressure;Samples;Min_cycle;Max_cycle;Signal;HPM_P1;HPM_P2
2021/10/13 00:07:27;;;;;;;1999.90;999.90;;;;;;;7.32;70.21;101267.69;15675562;28;20405;-61
2021/10/13 00:15:00;;;;;;;1999.90;999.90;;;;;;;7.28;70.15;101260.25;15675167;28;20056;-61
2021/10/13 00:22:34;;;;;;;1999.90;999.90;;;;;;;7.23;70.57;101267.53;15672924;28;20079;-61
2021/10/13 00:30:07;;;;;;;1999.90;999.90;;;;;;;7.10;70.46;101275.75;15656227;28;20098;-60
2021/10/13 00:37:41;;;;;;;1999.90;999.90;;;;;;;7.09;71.24;101283.25;15672385;28;20071;-61
2021/10/13 00:45:14;;;;;;;1999.90;999.90;;;;;;;7.02;70.69;101282.78;15673228;28;20048;-61
2021/10/13 00:52:47;;;;;;;1999.90;999.90;;;;;;;7.10;71.15;101281.31;15673042;28;20123;-59
2021/10/13 01:00:23;;;;;;;1999.90;999.90;;;;;;;7.11;71.08;101282.94;15672173;28;20055;-60
2021/10/13 01:08:01;;;;;;;1999.90;999.90;;;;;;;7.12;71.59;101290.16;15671433;28;20454;-61
2021/10/13 01:15:44;;;;;;;1999.90;999.90;;;;;;;7.08;71.93;101295.44;15670294;28;20044;-59
2021/10/13 01:23:33;;;;;;;1999.90;999.90;;;;;;;7.04;72.07;101291.63;15667838;28;20487;-59
2021/10/13 01:31:16;;;;;;;1999.90;999.90;;;;;;;7.15;72.60;101304.25;15659370;28;20037;-59
2021/10/13 01:38:52;;;;;;;1999.90;999.90;;;;;;;7.13;72.90;101302.91;15670827;28;20489;-60
2021/10/13 01:46:28;;;;;;;1999.90;999.90;;;;;;;7.10;73.76;101309.88;15670566;28;20128;-61
2021/10/13 01:54:02;;;;;;;1999.90;999.90;;;;;;;7.14;73.16;101321.22;15672716;28;20048;-60
2021/10/13 02:01:37;;;;;;;;;;;;;;;7.21;73.22;101321.69;15681198;28;20036;-59
2021/10/13 02:09:10;;;;;;;1999.90;999.90;;;;;;;7.02;73.72;101337.44;15677693;28;20008;-59
2021/10/13 02:16:48;;;;;;;1999.90;999.90;;;;;;;7.13;74.35;101333.44;15685994;22;20069;-54
2021/10/13 02:24:24;;;;;;;1999.90;999.90;;;;;;;7.15;74.26;101340.34;15615351;28;20386;-58
2021/10/13 02:31:58;;;;;;;1999.90;999.90;;;;;;;7.15;74.94;101336.72;15618700;28;20474;-57
2021/10/13 02:39:37;;;;;;;1999.90;999.90;;;;;;;7.06;74.95;101341.28;15617605;28;20041;-57
2021/10/13 02:47:17;;;;;;;1999.90;999.90;;;;;;;7.15;75.35;101353.38;15617673;28;20077;-58
2021/10/13 02:54:54;;;;;;;1999.90;999.90;;;;;;;7.11;74.82;101363.44;15617197;28;20544;-54
2021/10/13 03:02:37;;;;;;;1999.90;999.90;;;;;;;7.18;75.28;101364.72;15616486;28;20115;-57
2021/10/13 03:10:23;;;;;;;1999.90;999.90;;;;;;;7.15;75.51;101372.81;15599404;28;20107;-59
2021/10/13 03:18:01;;;;;;;1999.90;999.90;;;;;;;6.94;75.43;101386.06;15615417;28;20164;-57
2021/10/13 03:25:34;;;;;;;1999.90;999.90;;;;;;;6.93;75.81;101389.97;15615484;28;20525;-60
2021/10/13 03:33:08;;;;;;;1999.90;999.90;;;;;;;6.97;76.30;101396.59;15596753;28;20049;-59
2021/10/13 03:40:45;;;;;;;1999.90;999.90;;;;;;;6.97;75.85;101391.03;15614854;28;20494;-57
2021/10/13 03:48:19;;;;;;;1999.90;999.90;;;;;;;6.99;76.29;101407.41;15613317;28;20046;-57
2021/10/13 03:55:52;;;;;;;1999.90;999.90;;;;;;;6.92;76.64;101407.75;15595977;28;20148;-57
2021/10/13 04:03:26;;;;;;;1999.90;999.90;;;;;;;6.97;76.23;101415.19;15582562;28;20099;-55
2021/10/13 04:10:59;;;;;;;1999.90;999.90;;;;;;;7.03;75.92;101423.19;15612351;28;20135;-57
2021/10/13 04:18:33;;;;;;;1999.90;999.90;;;;;;;6.93;76.09;101435.19;15611923;28;20045;-57
2021/10/13 04:26:08;;;;;;;1999.90;999.90;;;;;;;6.79;76.55;101438.94;15583916;28;20459;-57
2021/10/13 04:33:42;;;;;;;1999.90;999.90;;;;;;;6.77;77.04;101441.97;15595336;28;20486;-55
2021/10/13 04:41:14;;;;;;;1999.90;999.90;;;;;;;6.84;76.72;101442.47;15611474;28;20401;-56
2021/10/13 04:48:48;;;;;;;1999.90;999.90;;;;;;;6.68;77.18;101448.47;15594605;28;20033;-57
2021/10/13 04:56:21;;;;;;;1999.90;999.90;;;;;;;6.59;77.04;101449.06;15597737;28;20060;-53
2021/10/13 05:03:55;;;;;;;1999.90;999.90;;;;;;;6.70;76.99;101451.78;15580307;28;20047;-55
2021/10/13 05:11:27;;;;;;;1999.90;999.90;;;;;;;6.79;76.52;101455.59;15588709;28;20529;-53
2021/10/13 05:19:01;;;;;;;1999.90;999.90;;;;;;;6.69;77.06;101456.50;15600529;28;20407;-53
2021/10/13 05:26:35;;;;;;;1999.90;999.90;;;;;;;6.76;76.28;101462.53;15584344;28;20467;-53
2021/10/13 05:34:09;;;;;;;1999.90;999.90;;;;;;;6.79;76.20;101470.28;15620341;28;20406;-53
2021/10/13 05:41:45;;;;;;;1999.90;999.90;;;;;;;6.74;76.22;101478.63;15622687;28;20099;-59
2021/10/13 05:49:19;;;;;;;1999.90;999.90;;;;;;;6.78;76.53;101492.78;15584616;28;20045;-55
2021/10/13 05:56:52;;;;;;;1999.90;999.90;;;;;;;6.80;76.06;101499.69;15619356;28;20490;-55
2021/10/13 06:04:27;;;;;;;1999.90;999.90;;;;;;;6.83;75.73;101518.50;15602153;28;20092;-53
2021/10/13 06:12:00;;;;;;;1999.90;999.90;;;;;;;6.76;75.46;101522.72;15600900;28;20041;-56
2021/10/13 06:19:34;;;;;;;1999.90;999.90;;;;;;;7.03;75.56;101534.19;15619987;28;20184;-55
2021/10/13 06:27:06;;;;;;;1999.90;999.90;;;;;;;6.98;75.29;101553.63;15607102;28;20041;-55
2021/10/13 06:34:40;;;;;;;1999.90;999.90;;;;;;;7.13;75.56;101558.25;15620372;28;20068;-53
2021/10/13 06:42:13;;;;;;;1999.90;999.90;;;;;;;7.31;75.56;101567.84;15600641;28;20418;-55
2021/10/13 06:49:47;;;;;;;1999.90;999.90;;;;;;;7.99;74.94;101571.31;15616794;28;20049;-54
2021/10/13 06:57:20;;;;;;;1999.90;999.90;;;;;;;9.15;71.67;101573.66;15586039;28;20080;-53
2021/10/13 07:04:54;;;;;;;1999.90;999.90;;;;;;;10.27;68.26;101570.84;15606294;28;20132;-54
2021/10/13 07:12:27;;;;;;;1999.90;999.90;;;;;;;10.86;65.19;101589.38;15592818;28;20083;-54
2021/10/13 07:20:04;;;;;;;1999.90;999.90;;;;;;;11.22;63.85;101588.53;15606021;28;20506;-58
2021/10/13 07:27:37;;;;;;;1999.90;999.90;;;;;;;11.69;62.87;101595.47;15609657;28;20156;-56
2021/10/13 07:35:11;;;;;;;1999.90;999.90;;;;;;;12.05;62.18;101600.13;15638695;28;20104;-61
2021/10/13 07:42:44;;;;;;;1999.90;999.90;;;;;;;12.74;60.57;101607.97;15621925;28;20454;-57
2021/10/13 07:50:18;;;;;;;1999.90;999.90;;;;;;;13.07;59.15;101623.16;15610031;28;20485;-58
2021/10/13 07:57:51;;;;;;;1999.90;999.90;;;;;;;13.45;58.58;101625.38;15609703;28;20041;-58
2021/10/13 08:05:25;;;;;;;1999.90;999.90;;;;;;;13.00;59.21;101626.44;15632099;28;20620;-58
2021/10/13 08:12:59;;;;;;;1999.90;999.90;;;;;;;12.77;60.02;101626.91;15619451;28;20386;-52
2021/10/13 08:20:33;;;;;;;1999.90;999.90;;;;;;;12.32;61.55;101627.09;15664790;22;20057;-62
2021/10/13 08:28:08;;;;;;;1999.90;999.90;;;;;;;11.60;63.53;101627.31;15650857;28;20091;-63
2021/10/13 08:35:42;;;;;;;1999.90;999.90;;;;;;;12.32;61.82;101641.91;15682612;28;20048;-61
2021/10/13 08:43:19;;;;;;;1999.90;999.90;;;;;;;12.06;62.68;101652.94;15665937;28;20049;-61
2021/10/13 08:50:53;;;;;;;1999.90;999.90;;;;;;;13.05;60.67;101644.28;15682859;28;20504;-62
2021/10/13 08:58:27;;;;;;;1999.90;999.90;;;;;;;14.02;58.42;101653.97;15665842;28;20049;-62
2021/10/13 09:06:15;;;;;;;1999.90;999.90;;;;;;;14.54;55.43;101664.25;15673820;28;20068;-61
2021/10/13 09:13:48;;;;;;;1999.90;999.90;;;;;;;14.64;53.62;101664.69;15651077;28;20094;-61
2021/10/13 09:21:42;;;;;;;;;;;;;;;14.75;52.83;101669.94;15669899;28;20037;-62
2021/10/13 09:29:16;;;;;;;1999.90;999.90;;;;;;;15.01;52.99;101663.00;15686492;28;19925;-62
2021/10/13 09:36:58;;;;;;;1999.90;999.90;;;;;;;15.86;51.17;101671.13;15676837;28;20132;-63
2021/10/13 09:44:33;;;;;;;1999.90;999.90;;;;;;;16.37;49.66;101677.38;15668660;28;20049;-60
2021/10/13 09:52:11;;;;;;;1999.90;999.90;;;;;;;16.61;49.25;101685.03;15667595;28;20087;-63
2021/10/13 09:59:57;;;;;;;1999.90;999.90;;;;;;;16.76;49.45;101682.69;15661085;28;20041;-62
2021/10/13 10:07:32;;;;;;;1999.90;999.90;;;;;;;17.11;49.31;101697.16;15679379;28;20049;-63
2021/10/13 10:15:10;;;;;;;1999.90;999.90;;;;;;;16.79;49.37;101691.31;15684514;28;20041;-63
2021/10/13 10:22:47;;;;;;;1999.90;999.90;;;;;;;16.83;50.57;101691.41;15653423;28;20468;-62
2021/10/13 10:30:20;;;;;;;1999.90;999.90;;;;;;;17.00;48.92;101700.47;15685840;28;20417;-62
2021/10/13 10:37:57;;;;;;;1999.90;999.90;;;;;;;17.24;48.57;101693.13;15688086;28;20060;-61
2021/10/13 10:45:36;;;;;;;1999.90;999.90;;;;;;;17.18;48.28;101692.56;15694592;28;20056;-62
2021/10/13 10:53:15;;;;;;;1999.90;999.90;;;;;;;18.29;47.47;101690.19;15650559;28;20061;-63
2021/10/13 11:00:59;;;;;;;1999.90;999.90;;;;;;;17.95;46.30;101706.63;15689471;28;20044;-63
2021/10/13 11:08:32;;;;;;;1999.90;999.90;;;;;;;18.50;43.80;101709.72;15686442;28;20044;-63
2021/10/13 11:16:07;;;;;;;1999.90;999.90;;;;;;;19.25;43.37;101709.63;15693472;28;20062;-62
2021/10/13 11:23:42;;;;;;;1999.90;999.90;;;;;;;19.24;42.18;101711.63;15668354;28;20044;-63
2021/10/13 11:31:15;;;;;;;1999.90;999.90;;;;;;;19.50;41.46;101707.38;15660168;28;20076;-63
2021/10/13 11:38:49;;;;;;;1999.90;999.90;;;;;;;22.34;38.02;101711.38;15695419;28;20124;-64
2021/10/13 11:46:21;;;;;;;1999.90;999.90;;;;;;;22.21;37.38;101715.72;15699166;28;20143;-66
2021/10/13 11:53:56;;;;;;;;;;;;;;;23.15;36.57;101724.75;15689717;28;20094;-64
2021/10/13 12:01:29;;;;;;;1999.90;999.90;;;;;;;23.04;38.06;101710.44;15703747;28;19921;-62
2021/10/13 12:09:08;;;;;;;1999.90;999.90;;;;;;;22.90;35.52;101721.69;15672794;28;20440;-64
2021/10/13 12:16:40;;;;;;;1999.90;999.90;;;;;;;20.91;40.28;101725.56;15684258;28;20107;-63
2021/10/13 12:24:14;;;;;;;1999.90;999.90;;;;;;;21.66;38.12;101725.94;15686346;28;20033;-63
2021/10/13 12:31:47;;;;;;;1999.90;999.90;;;;;;;25.23;32.23;101730.81;15689717;28;20049;-62
2021/10/13 12:39:24;;;;;;;1999.90;999.90;;;;;;;23.58;33.68;101737.28;15686786;28;20455;-63
2021/10/13 12:46:58;;;;;;;1999.90;999.90;;;;;;;22.38;36.46;101737.81;15721052;28;20392;-63
2021/10/13 12:54:34;;;;;;;1999.90;999.90;;;;;;;24.24;32.45;101739.19;15710389;28;20043;-62
2021/10/13 13:02:07;;;;;;;1999.90;999.90;;;;;;;26.46;30.01;101742.25;15678998;28;20029;-64
2021/10/13 13:09:41;;;;;;;1999.90;999.90;;;;;;;27.80;28.59;101749.31;15675103;28;20413;-64
2021/10/13 13:17:14;;;;;;;1999.90;999.90;;;;;;;19.62;41.03;101729.91;15706771;28;20053;-63
2021/10/13 13:24:48;;;;;;;1999.90;999.90;;;;;;;17.78;44.18;101732.31;15705889;28;20087;-63
2021/10/13 13:32:20;;;;;;;1999.90;999.90;;;;;;;17.19;46.32;101732.84;15661051;28;20072;-62
2021/10/13 13:39:54;;;;;;;1999.90;999.90;;;;;;;16.71;46.44;101724.06;15678500;28;20045;-62
2021/10/13 13:47:27;;;;;;;1999.90;999.90;;;;;;;16.91;47.86;101733.59;15672802;28;20041;-63
2021/10/13 13:55:00;;;;;;;1999.90;999.90;;;;;;;16.58;47.08;101733.63;15668273;28;20037;-62
2021/10/13 14:02:33;;;;;;;1999.90;999.90;;;;;;;16.03;47.50;101734.03;15679625;28;20398;-62
2021/10/13 14:10:09;;;;;;;1999.90;999.90;;;;;;;16.12;49.11;101734.78;15670086;28;20037;-60
2021/10/13 14:17:43;;;;;;;1999.90;999.90;;;;;;;15.58;48.84;101734.72;15692776;22;20513;-62
2021/10/13 14:25:17;;;;;;;1999.90;999.90;;;;;;;15.35;49.47;101739.84;15682550;28;20500;-61
2021/10/13 14:32:50;;;;;;;1999.90;999.90;;;;;;;15.43;49.73;101740.97;15650907;28;20340;-62
2021/10/13 14:40:24;;;;;;;1999.90;999.90;;;;;;;15.55;50.25;101746.66;15678447;28;20045;-61
2021/10/13 14:47:56;;;;;;;1999.90;999.90;;;;;;;15.05;50.12;101741.84;15661877;28;20053;-61
2021/10/13 14:55:30;;;;;;;1999.90;999.90;;;;;;;15.11;49.79;101737.69;15675439;28;20079;-61
2021/10/13 15:03:05;;;;;;;1999.90;999.90;;;;;;;14.75;50.50;101749.41;15676996;28;20422;-61
2021/10/13 15:10:39;;;;;;;1999.90;999.90;;;;;;;14.51;50.82;101746.38;15679168;28;20542;-61
2021/10/13 15:18:11;;;;;;;1999.90;999.90;;;;;;;14.22;50.72;101742.28;15677138;28;20037;-61
2021/10/13 15:25:45;;;;;;;1999.90;999.90;;;;;;;14.27;51.04;101747.69;15677404;28;20063;-61
2021/10/13 15:33:18;;;;;;;1999.90;999.90;;;;;;;13.89;50.99;101756.00;15677544;28;20091;-61
2021/10/13 15:40:52;;;;;;;1999.90;999.90;;;;;;;13.84;52.06;101745.75;15661476;28;20040;-61
2021/10/13 15:48:25;;;;;;;1999.90;999.90;;;;;;;13.50;54.17;101757.78;15667003;28;20045;-61
2021/10/13 15:55:58;;;;;;;1999.90;999.90;;;;;;;13.56;54.76;101756.50;15673863;28;20508;-61
2021/10/13 16:03:31;;;;;;;1999.90;999.90;;;;;;;13.29;54.88;101763.19;15667371;28;20108;-61
2021/10/13 16:11:07;;;;;;;1999.90;999.90;;;;;;;12.99;55.18;101769.66;15671414;28;20049;-62
2021/10/13 16:18:40;;;;;;;1999.90;999.90;;;;;;;12.94;55.50;101781.03;15670037;28;20118;-61
2021/10/13 16:26:14;;;;;;;1999.90;999.90;;;;;;;12.74;56.21;101782.41;15675208;28;20124;-62
2021/10/13 16:33:47;;;;;;;1999.90;999.90;;;;;;;12.40;57.01;101791.41;15668934;28;20048;-58
2021/10/13 16:41:21;;;;;;;1999.90;999.90;;;;;;;12.12;57.81;101796.34;15652322;28;20044;-62
2021/10/13 16:48:53;;;;;;;1999.90;999.90;;;;;;;11.97;58.54;101794.72;15646554;28;20034;-60
2021/10/13 16:56:27;;;;;;;1999.90;999.90;;;;;;;11.76;60.31;101785.13;15643551;28;20050;-60
2021/10/13 17:03:59;;;;;;;1999.90;999.90;;;;;;;11.54;61.14;101785.94;15667103;28;20057;-61
2021/10/13 17:11:33;;;;;;;1999.90;999.90;;;;;;;11.33;60.84;101784.72;15666734;28;20045;-61
2021/10/13 17:19:06;;;;;;;1999.90;999.90;;;;;;;11.32;61.07;101783.06;15666785;28;20390;-62
2021/10/13 17:26:40;;;;;;;1999.90;999.90;;;;;;;11.04;61.86;101780.28;15667142;28;20041;-61
2021/10/13 17:34:13;;;;;;;1999.90;999.90;;;;;;;10.95;62.84;101784.97;15643105;28;20136;-60
2021/10/13 17:41:47;;;;;;;1999.90;999.90;;;;;;;10.78;63.20;101799.50;15663186;28;20437;-60
2021/10/13 17:49:20;;;;;;;1999.90;999.90;;;;;;;10.80;63.16;101794.44;15645611;28;20045;-60
2021/10/13 17:56:54;;;;;;;1999.90;999.90;;;;;;;10.76;63.72;101789.78;15646467;28;20486;-61
2021/10/13 18:04:27;;;;;;;1999.90;999.90;;;;;;;10.62;64.40;101793.38;15651195;28;20439;-60
2021/10/13 18:12:01;;;;;;;1999.90;999.90;;;;;;;10.82;64.04;101799.72;15645709;28;20032;-62
2021/10/13 18:19:33;;;;;;;1999.90;999.90;;;;;;;10.97;63.47;101803.06;15669820;28;20051;-61
2021/10/13 18:27:08;;;;;;;1999.90;999.90;;;;;;;11.10;63.05;101812.56;15705769;28;20049;-61
2021/10/13 18:34:41;;;;;;;1999.90;999.90;;;;;;;10.99;63.55;101814.75;15692045;28;20103;-59
2021/10/13 18:42:17;;;;;;;1999.90;999.90;;;;;;;10.94;64.49;101817.66;15629450;28;20045;-61
2021/10/13 18:49:50;;;;;;;1999.90;999.90;;;;;;;11.00;64.57;101821.16;15632862;28;20048;-60
2021/10/13 18:57:23;;;;;;;1999.90;999.90;;;;;;;11.14;63.23;101821.16;15680415;28;20052;-62
2021/10/13 19:04:56;;;;;;;1999.90;999.90;;;;;;;11.16;63.54;101828.09;15678898;28;20036;-61
2021/10/13 19:12:30;;;;;;;1999.90;999.90;;;;;;;11.31;64.25;101826.94;15682239;28;20156;-59
2021/10/13 19:20:04;;;;;;;1999.90;999.90;;;;;;;11.30;63.53;101822.50;15695338;28;20056;-58
2021/10/13 19:27:38;;;;;;;1999.90;999.90;;;;;;;11.41;63.17;101831.50;15687825;28;20053;-60
2021/10/13 19:35:10;;;;;;;1999.90;999.90;;;;;;;11.40;63.34;101827.06;15676933;28;20041;-60
2021/10/13 19:42:44;;;;;;;1999.90;999.90;;;;;;;11.30;63.28;101814.13;15677468;28;20425;-60
2021/10/13 19:50:17;;;;;;;1999.90;999.90;;;;;;;11.24;63.68;101832.13;15657021;28;20044;-60
2021/10/13 19:57:51;;;;;;;1999.90;999.90;;;;;;;11.24;64.17;101823.72;15676148;28;20051;-61
2021/10/13 20:05:24;;;;;;;1999.90;999.90;;;;;;;11.31;64.41;101831.72;15657320;28;20041;-61
2021/10/13 20:12:58;;;;;;;1999.90;999.90;;;;;;;11.32;63.85;101838.94;15688175;28;20037;-61
2021/10/13 20:20:32;;;;;;;1999.90;999.90;;;;;;;11.37;64.39;101825.72;15669691;22;20076;-60
2021/10/13 20:28:07;;;;;;;1999.90;999.90;;;;;;;11.27;64.92;101837.09;15686651;28;20420;-60
2021/10/13 20:35:39;;;;;;;1999.90;999.90;;;;;;;11.38;64.70;101830.16;15680857;28;20132;-56
2021/10/13 20:43:13;;;;;;;1999.90;999.90;;;;;;;11.26;65.57;101829.88;15728678;28;20036;-60
2021/10/13 20:50:46;;;;;;;1999.90;999.90;;;;;;;11.08;66.13;101828.81;15699391;28;20088;-55
2021/10/13 20:58:20;;;;;;;1999.90;999.90;;;;;;;11.02;66.54;101823.63;15665004;28;20141;-59
2021/10/13 21:05:52;;;;;;;1999.90;999.90;;;;;;;10.87;68.33;101819.19;15696834;28;20047;-58
2021/10/13 21:13:26;;;;;;;1999.90;999.90;;;;;;;11.05;67.79;101820.25;15689537;28;20041;-57
2021/10/13 21:20:58;;;;;;;1999.90;999.90;;;;;;;11.18;67.18;101811.84;15691885;28;20044;-60
2021/10/13 21:28:32;;;;;;;1999.90;999.90;;;;;;;11.27;67.21;101814.75;15685630;28;20052;-60
2021/10/13 21:36:08;;;;;;;1999.90;999.90;;;;;;;11.33;67.54;101796.72;15673424;28;20041;-55
2021/10/13 21:43:41;;;;;;;1999.90;999.90;;;;;;;11.34;67.71;101803.13;15693397;28;20041;-58
2021/10/13 21:51:14;;;;;;;1999.90;999.90;;;;;;;11.25;68.54;101797.44;15697665;28;20053;-59
2021/10/13 21:58:48;;;;;;;1999.90;999.90;;;;;;;11.34;68.39;101801.16;15713196;28;20049;-56
2021/10/13 22:06:20;;;;;;;1999.90;999.90;;;;;;;11.36;69.02;101792.47;15702540;28;20128;-56
2021/10/13 22:13:54;;;;;;;1999.90;999.90;;;;;;;11.21;69.36;101796.41;15689459;28;20041;-58
2021/10/13 22:21:26;;;;;;;1999.90;999.90;;;;;;;11.39;69.79;101784.31;15713030;28;20101;-58
2021/10/13 22:29:00;;;;;;;1999.90;999.90;;;;;;;11.46;69.99;101787.50;15723774;28;20052;-57
2021/10/13 22:36:33;;;;;;;1999.90;999.90;;;;;;;11.50;69.71;101776.53;15722019;28;20044;-58
2021/10/13 22:44:25;;;;;;;1999.90;999.90;;;;;;;11.53;69.76;101773.91;15678016;28;20040;-59
2021/10/13 22:51:59;;;;;;;1999.90;999.90;;;;;;;11.52;69.69;101777.84;15682994;28;20037;-58
2021/10/13 22:59:36;;;;;;;1999.90;999.90;;;;;;;11.53;70.05;101764.69;15713620;28;20063;-58
2021/10/13 23:07:12;;;;;;;1999.90;999.90;;;;;;;11.50;70.87;101768.97;15669012;28;20045;-55
2021/10/13 23:14:50;;;;;;;1999.90;999.90;;;;;;;11.54;72.13;101775.56;15664534;28;20042;-57
2021/10/13 23:22:26;;;;;;;1999.90;999.90;;;;;;;11.59;72.39;101779.41;15684987;28;20520;-58
2021/10/13 23:30:02;;;;;;;1999.90;999.90;;;;;;;11.67;72.92;101773.03;15669024;28;20055;-58
2021/10/13 23:37:43;;;;;;;1999.90;999.90;;;;;;;11.57;73.75;101763.78;15690857;28;20062;-58
2021/10/13 23:45:20;;;;;;;1999.90;999.90;;;;;;;11.64;73.64;101762.50;15663984;28;20504;-60
2021/10/13 23:52:53;;;;;;;1999.90;999.90;;;;;;;11.71;73.68;101760.94;15736419;28;20136;-56
